Time;durP1;ratioP1;P1;durP2;ratioP2;P2;SDS_P1;SDS_P2;PMS_P1;PMS_P2;Temp;Humidity;BMP_temperature;BMP_pressure;BME280_temperature;BME280_humidity;BME280_pressure;Samples;Min_cycle;Max_cycle;Signal;HPM_P1;HPM_P2
2024/01/31 00:01:33;;;;;;;12.70;2.42;;;9.10;99.90;;;;;;5054869;28;20786;-78
2024/01/31 00:03:59;;;;;;;8.15;2.20;;;9.60;99.90;;;;;;5069338;28;20028;-75
2024/01/31 00:06:25;;;;;;;10.18;2.53;;;9.60;99.90;;;;;;5035619;28;20040;-77
2024/01/31 00:08:51;;;;;;;8.60;2.50;;;9.60;99.90;;;;;;5051824;28;20537;-77
2024/01/31 00:11:16;;;;;;;7.25;2.00;;;9.10;99.90;;;;;;5018300;28;20365;-79
2024/01/31 00:13:42;;;;;;;7.03;1.88;;;9.70;99.90;;;;;;5049542;28;20041;-76
2024/01/31 00:16:08;;;;;;;8.38;2.05;;;9.10;99.90;;;;;;5051905;28;20043;-76
2024/01/31 00:18:34;;;;;;;6.38;2.05;;;9.30;99.90;;;;;;5035458;28;20037;-79
2024/01/31 00:21:00;;;;;;;6.82;1.85;;;9.70;99.90;;;;;;5065826;28;20037;-79
2024/01/31 00:23:26;;;;;;;4.22;1.85;;;9.60;99.90;;;;;;5051773;28;20047;-77
2024/01/31 00:25:51;;;;;;;10.75;2.65;;;9.10;99.90;;;;;;5068645;28;20412;-77
2024/01/31 00:28:17;;;;;;;9.68;1.85;;;9.20;99.90;;;;;;5052019;28;20043;-77
2024/01/31 00:30:43;;;;;;;8.25;2.28;;;9.20;99.90;;;;;;5050563;28;20041;-78
2024/01/31 00:33:09;;;;;;;8.15;1.70;;;9.70;99.90;;;;;;5018517;28;20033;-77
2024/01/31 00:35:34;;;;;;;6.43;1.95;;;9.60;99.90;;;;;;5051518;28;20525;-75
2024/01/31 00:38:00;;;;;;;7.68;2.38;;;9.20;99.90;;;;;;5068507;28;20060;-79
2024/01/31 00:40:26;;;;;;;8.80;2.10;;;9.20;99.90;;;;;;5048666;28;20054;-76
2024/01/31 00:42:52;;;;;;;8.65;1.90;;;9.50;99.90;;;;;;5068249;28;20044;-78
2024/01/31 00:45:18;;;;;;;11.18;2.50;;;9.60;99.90;;;;;;5068474;28;20033;-78
2024/01/31 00:47:43;;;;;;;5.65;1.60;;;9.10;99.90;;;;;;5033927;28;20041;-77
2024/01/31 00:50:12;;;;;;;7.53;1.48;;;9.60;99.90;;;;;;5050350;28;20040;-79
2024/01/31 00:52:44;;;;;;;7.13;1.80;;;9.70;99.90;;;;;;5090832;28;20132;-80
2024/01/31 00:55:10;;;;;;;7.20;1.50;;;9.00;99.90;;;;;;5051093;28;20048;-76
2024/01/31 00:57:36;;;;;;;8.20;2.00;;;9.60;99.90;;;;;;5067396;28;20049;-80
2024/01/31 01:00:04;;;;;;;5.40;1.70;;;9.00;99.90;;;;;;5034967;28;20039;-78
2024/01/31 01:02:31;;;;;;;6.20;1.52;;;9.60;99.90;;;;;;5067042;28;20044;-76
2024/01/31 01:04:56;;;;;;;6.45;1.60;;;9.00;99.90;;;;;;5051096;28;20047;-77
2024/01/31 01:07:22;;;;;;;6.10;1.58;;;9.60;99.90;;;;;;5051484;28;20067;-74
2024/01/31 01:09:48;;;;;;;8.35;1.65;;;9.00;99.90;;;;;;5067476;28;20042;-76
2024/01/31 01:12:14;;;;;;;8.52;1.60;;;9.00;99.90;;;;;;5066794;28;20052;-76
2024/01/31 01:14:39;;;;;;;5.18;1.50;;;9.30;99.90;;;;;;5051159;28;20032;-75
2024/01/31 01:17:05;;;;;;;6.28;1.40;;;9.60;99.90;;;;;;5051329;28;20110;-76
2024/01/31 01:19:31;;;;;;;5.63;1.40;;;9.20;99.90;;;;;;5048573;28;20040;-74
2024/01/31 01:21:57;;;;;;;8.60;1.35;;;9.10;99.90;;;;;;5049386;28;20055;-78
2024/01/31 01:24:23;;;;;;;9.20;1.65;;;9.40;99.90;;;;;;5051813;28;20098;-76
2024/01/31 01:26:49;;;;;;;7.32;1.75;;;9.00;99.90;;;;;;5050970;28;20388;-75
2024/01/31 01:29:15;;;;;;;7.75;1.50;;;9.10;99.90;;;;;;5067728;28;20049;-76
2024/01/31 01:31:41;;;;;;;5.75;1.60;;;9.60;99.90;;;;;;5032749;28;20052;-77
2024/01/31 01:34:06;;;;;;;4.40;1.48;;;9.20;99.90;;;;;;5067198;28;20039;-77
2024/01/31 01:36:32;;;;;;;5.45;1.55;;;9.00;99.90;;;;;;5050143;28;20049;-75
2024/01/31 01:38:57;;;;;;;3.95;1.48;;;9.00;99.90;;;;;;5068905;28;20071;-75
2024/01/31 01:41:23;;;;;;;6.55;1.40;;;9.40;99.90;;;;;;5071738;28;20040;-75
2024/01/31 01:43:49;;;;;;;6.72;1.40;;;9.20;99.90;;;;;;5034803;28;20456;-78
2024/01/31 01:46:19;;;;;;;8.20;1.70;;;9.40;99.90;;;;;;5055131;28;20031;-78
2024/01/31 01:48:45;;;;;;;4.63;1.30;;;9.20;99.90;;;;;;5070998;28;20032;-77
2024/01/31 01:51:15;;;;;;;3.90;1.40;;;9.30;99.90;;;;;;5054701;28;20040;-78
2024/01/31 01:53:41;;;;;;;4.85;1.40;;;9.10;99.90;;;;;;5052176;28;20051;-75
2024/01/31 01:56:11;;;;;;;7.55;1.85;;;9.40;99.90;;;;;;5071523;28;20020;-77
2024/01/31 01:58:37;;;;;;;6.57;1.60;;;9.40;99.90;;;;;;5070899;28;20079;-76
2024/01/31 02:01:03;;;;;;;6.40;1.40;;;8.90;99.90;;;;;;5055308;28;20041;-79
2024/01/31 02:03:30;;;;;;;6.35;1.30;;;9.30;99.90;;;;;;5067662;28;20097;-79
2024/01/31 02:06:03;;;;;;;5.20;1.50;;;9.20;99.90;;;;;;5069313;28;20051;-75
2024/01/31 02:08:29;;;;;;;5.40;1.40;;;8.80;99.90;;;;;;5054301;28;20128;-76
2024/01/31 02:10:58;;;;;;;7.80;1.58;;;8.80;99.90;;;;;;5069368;28;20127;-77
2024/01/31 02:13:24;;;;;;;5.38;1.40;;;8.90;99.90;;;;;;5050709;28;20044;-75
2024/01/31 02:15:54;;;;;;;5.30;1.55;;;8.80;99.90;;;;;;5053869;28;20556;-78
2024/01/31 02:18:23;;;;;;;7.47;1.92;;;9.00;99.90;;;;;;5054592;28;20037;-79
2024/01/31 02:20:49;;;;;;;6.38;2.25;;;8.80;99.90;;;;;;5052505;28;20068;-77
2024/01/31 02:23:15;;;;;;;5.22;1.65;;;8.70;99.90;;;;;;5037412;28;20118;-76
2024/01/31 02:25:41;;;;;;;5.95;1.92;;;8.70;99.90;;;;;;5053621;28;20082;-76
2024/01/31 02:28:07;;;;;;;7.90;1.50;;;8.60;99.90;;;;;;5070698;28;20036;-79
2024/01/31 02:30:33;;;;;;;5.75;1.33;;;8.80;99.90;;;;;;5052628;28;20045;-77
2024/01/31 02:32:58;;;;;;;7.13;1.70;;;8.80;99.90;;;;;;5058570;28;20044;-76
2024/01/31 02:35:24;;;;;;;6.35;1.55;;;8.80;99.90;;;;;;5037262;28;20036;-75
2024/01/31 02:37:50;;;;;;;4.90;1.45;;;8.50;99.90;;;;;;5070442;28;20106;-76
2024/01/31 02:40:16;;;;;;;5.53;1.42;;;8.80;99.90;;;;;;5070574;28;20036;-78
2024/01/31 02:42:43;;;;;;;5.35;1.40;;;8.70;99.90;;;;;;5065376;28;20154;-75
2024/01/31 02:45:09;;;;;;;8.00;1.73;;;8.60;99.90;;;;;;5066643;28;20036;-76
2024/01/31 02:47:35;;;;;;;4.63;1.55;;;8.70;99.90;;;;;;5070533;28;20119;-80
2024/01/31 02:50:01;;;;;;;4.28;1.38;;;8.30;99.90;;;;;;5035867;28;20040;-79
2024/01/31 02:52:27;;;;;;;4.65;1.33;;;8.40;99.90;;;;;;5051951;28;20060;-75
2024/01/31 02:54:53;;;;;;;8.85;2.05;;;8.50;99.90;;;;;;5066949;28;20134;-78
2024/01/31 02:57:19;;;;;;;5.75;1.60;;;8.40;99.90;;;;;;5048989;28;20436;-78
2024/01/31 02:59:45;;;;;;;6.22;1.60;;;8.80;99.90;;;;;;5068225;28;20143;-77
2024/01/31 03:02:11;;;;;;;8.13;1.90;;;8.70;99.90;;;;;;5070973;28;20119;-76
2024/01/31 03:04:36;;;;;;;4.78;1.30;;;8.50;99.90;;;;;;5053165;28;20063;-76
2024/01/31 03:07:02;;;;;;;5.60;1.67;;;8.60;99.90;;;;;;5043917;28;20143;-76
2024/01/31 03:09:28;;;;;;;5.03;1.33;;;8.20;99.90;;;;;;5069155;28;20040;-74
2024/01/31 03:11:54;;;;;;;5.75;1.67;;;8.50;99.90;;;;;;5051603;28;20280;-77
2024/01/31 03:14:20;;;;;;;4.47;1.52;;;8.10;99.90;;;;;;5070014;28;20052;-79
2024/01/31 03:16:45;;;;;;;10.60;1.75;;;8.20;99.90;;;;;;5053185;28;20040;-76
2024/01/31 03:19:11;;;;;;;5.78;1.60;;;8.10;99.90;;;;;;5053610;28;20674;-77
2024/01/31 03:21:38;;;;;;;5.40;1.50;;;8.10;99.90;;;;;;5050549;28;20115;-77
2024/01/31 03:24:04;;;;;;;6.80;1.23;;;8.30;99.90;;;;;;5069937;28;20101;-77
2024/01/31 03:26:30;;;;;;;6.47;1.25;;;8.40;99.90;;;;;;5052977;28;20048;-79
2024/01/31 03:28:56;;;;;;;7.25;1.30;;;8.50;99.90;;;;;;5036134;28;20085;-75
2024/01/31 03:31:21;;;;;;;6.55;1.77;;;8.30;99.90;;;;;;5068896;28;20053;-75
2024/01/31 03:33:47;;;;;;;3.47;1.30;;;8.00;99.90;;;;;;5069187;28;20450;-76
2024/01/31 03:36:13;;;;;;;7.20;1.52;;;8.00;99.90;;;;;;5069638;28;20103;-77
2024/01/31 03:38:39;;;;;;;6.13;1.33;;;8.00;99.90;;;;;;5035844;28;20036;-77
2024/01/31 03:41:06;;;;;;;4.00;1.27;;;8.40;99.90;;;;;;5052048;28;20063;-78
2024/01/31 03:43:31;;;;;;;6.47;1.63;;;8.30;99.90;;;;;;5052795;28;20044;-75
2024/01/31 03:45:57;;;;;;;7.35;1.55;;;8.30;99.90;;;;;;5068975;28;20433;-75
2024/01/31 03:48:23;;;;;;;4.25;1.40;;;8.40;99.90;;;;;;5094883;28;20496;-77
2024/01/31 03:50:49;;;;;;;8.35;1.50;;;7.90;99.90;;;;;;5051727;28;20181;-76
2024/01/31 03:53:14;;;;;;;5.97;1.27;;;8.30;99.90;;;;;;5066467;28;20063;-79
2024/01/31 03:55:40;;;;;;;5.90;1.50;;;8.10;99.90;;;;;;5052106;28;20067;-79
2024/01/31 03:58:06;;;;;;;5.95;1.73;;;7.80;99.90;;;;;;5068675;28;20119;-75
2024/01/31 04:00:32;;;;;;;4.55;1.80;;;7.90;99.90;;;;;;5052377;28;20091;-79
2024/01/31 04:02:57;;;;;;;5.65;1.35;;;8.00;99.90;;;;;;5065865;28;20051;-75
2024/01/31 04:05:23;;;;;;;7.60;2.30;;;7.90;99.90;;;;;;5051782;28;20097;-78
2024/01/31 04:07:49;;;;;;;8.27;1.40;;;8.20;99.90;;;;;;5068212;28;20048;-78
2024/01/31 04:10:15;;;;;;;9.05;2.00;;;8.10;99.90;;;;;;5068776;28;20165;-76
2024/01/31 04:12:41;;;;;;;4.30;1.30;;;8.50;99.90;;;;;;5068205;28;20448;-76
2024/01/31 04:15:07;;;;;;;8.25;1.42;;;8.40;99.90;;;;;;5052178;28;20040;-75
2024/01/31 04:17:32;;;;;;;6.95;1.85;;;8.50;99.90;;;;;;5068410;28;20044;-77
2024/01/31 04:19:58;;;;;;;8.15;1.73;;;8.10;99.90;;;;;;5051359;28;20067;-75
2024/01/31 04:22:24;;;;;;;6.88;2.15;;;8.00;99.90;;;;;;5047230;28;20436;-76
2024/01/31 04:24:49;;;;;;;6.03;1.67;;;7.80;99.90;;;;;;5067113;28;20454;-76
2024/01/31 04:27:15;;;;;;;5.70;1.35;;;7.70;99.90;;;;;;5068294;28;20103;-78
2024/01/31 04:29:41;;;;;;;4.45;1.40;;;7.70;99.90;;;;;;5067817;28;20143;-76
2024/01/31 04:32:07;;;;;;;8.93;1.98;;;7.70;99.90;;;;;;5067893;28;20085;-74
2024/01/31 04:34:34;;;;;;;6.88;1.60;;;7.60;99.90;;;;;;5067809;28;20032;-74
2024/01/31 04:37:01;;;;;;;8.52;2.13;;;7.50;99.90;;;;;;5034047;28;20502;-77
2024/01/31 04:39:26;;;;;;;8.50;1.90;;;7.80;99.90;;;;;;5068312;28;20599;-78
2024/01/31 04:41:52;;;;;;;7.07;1.88;;;7.50;99.90;;;;;;5051633;28;20043;-75
2024/01/31 04:44:18;;;;;;;6.03;1.60;;;7.70;99.90;;;;;;5030709;28;20024;-75
2024/01/31 04:46:45;;;;;;;6.63;1.67;;;7.30;99.90;;;;;;5051486;28;20032;-77
2024/01/31 04:49:10;;;;;;;6.15;2.00;;;7.70;99.90;;;;;;5067704;28;20048;-74
2024/01/31 04:51:41;;;;;;;5.30;1.80;;;7.70;99.90;;;;;;5068082;28;20048;-75
2024/01/31 04:54:06;;;;;;;7.75;2.00;;;7.60;99.90;;;;;;5066708;28;20036;-73
2024/01/31 04:56:33;;;;;;;5.95;1.83;;;7.60;99.90;;;;;;5051163;28;20507;-77
2024/01/31 04:58:59;;;;;;;7.55;1.55;;;7.40;99.90;;;;;;5093754;28;20159;-74
2024/01/31 05:01:25;;;;;;;6.75;1.40;;;7.50;99.90;;;;;;5051329;28;20123;-74
2024/01/31 05:03:50;;;;;;;5.80;1.85;;;7.60;99.90;;;;;;5067359;28;20048;-73
2024/01/31 05:06:16;;;;;;;8.05;2.30;;;7.50;99.90;;;;;;5050233;28;20503;-78
2024/01/31 05:08:41;;;;;;;4.20;1.50;;;7.50;99.90;;;;;;5050731;28;20162;-77
2024/01/31 05:11:07;;;;;;;6.47;1.70;;;7.60;99.90;;;;;;5034822;28;20036;-76
2024/01/31 05:13:33;;;;;;;8.15;1.60;;;7.30;99.90;;;;;;5066765;28;20042;-76
2024/01/31 05:15:58;;;;;;;5.18;1.63;;;7.30;99.90;;;;;;5034584;28;20038;-76
2024/01/31 05:18:24;;;;;;;7.30;1.98;;;7.00;99.90;;;;;;5070330;28;20133;-75
2024/01/31 05:20:50;;;;;;;8.65;1.77;;;7.10;99.90;;;;;;5076656;28;20036;-74
2024/01/31 05:23:15;;;;;;;6.68;1.63;;;7.50;99.90;;;;;;5051112;28;20036;-75
2024/01/31 05:25:41;;;;;;;5.00;1.58;;;7.00;99.90;;;;;;5068805;28;20033;-76
2024/01/31 05:28:07;;;;;;;7.15;1.80;;;6.90;99.90;;;;;;5034541;28;20384;-76
2024/01/31 05:30:33;;;;;;;4.18;1.27;;;7.20;99.90;;;;;;5067284;28;20041;-76
2024/01/31 05:32:58;;;;;;;6.78;1.70;;;7.50;99.90;;;;;;5030802;28;21739;-78
2024/01/31 05:35:25;;;;;;;4.97;1.90;;;7.50;99.90;;;;;;5034774;28;20111;-78
2024/01/31 05:37:50;;;;;;;5.32;1.67;;;7.40;99.90;;;;;;5034324;28;20493;-79
2024/01/31 05:40:17;;;;;;;5.97;2.22;;;7.60;99.90;;;;;;5034036;28;20039;-80
2024/01/31 05:42:43;;;;;;;4.70;1.67;;;7.40;99.90;;;;;;5049646;28;20040;-75
2024/01/31 05:45:09;;;;;;;6.65;2.53;;;7.50;99.90;;;;;;5049626;28;20068;-74
2024/01/31 05:47:35;;;;;;;7.78;2.08;;;7.20;99.90;;;;;;5051065;28;20838;-78
2024/01/31 05:50:01;;;;;;;4.68;1.40;;;7.70;99.90;;;;;;5050320;28;20203;-76
2024/01/31 05:52:27;;;;;;;7.10;1.88;;;7.70;99.90;;;;;;5050491;28;20154;-75
2024/01/31 05:54:53;;;;;;;7.82;2.15;;;7.20;99.90;;;;;;5048031;28;20099;-76
2024/01/31 05:57:18;;;;;;;6.65;2.70;;;7.50;99.90;;;;;;5050636;28;20036;-78
2024/01/31 05:59:44;;;;;;;7.18;2.20;;;7.80;99.90;;;;;;5050681;28;21306;-74
2024/01/31 06:02:09;;;;;;;8.02;2.33;;;7.40;99.90;;;;;;5050425;28;20040;-77
2024/01/31 06:04:35;;;;;;;4.57;1.67;;;7.30;99.90;;;;;;5030084;28;20040;-80
2024/01/31 06:07:01;;;;;;;3.63;1.80;;;7.30;99.90;;;;;;5067006;28;20048;-81
2024/01/31 06:09:26;;;;;;;6.53;2.15;;;7.60;99.90;;;;;;5034312;28;20047;-78
2024/01/31 06:11:52;;;;;;;4.07;2.10;;;7.80;99.90;;;;;;5049726;28;20484;-75
2024/01/31 06:14:18;;;;;;;7.60;2.80;;;8.00;99.90;;;;;;5031082;28;20447;-78
2024/01/31 06:16:43;;;;;;;5.53;2.33;;;8.00;99.90;;;;;;5050376;28;20488;-79
2024/01/31 06:19:09;;;;;;;7.28;2.22;;;7.70;99.90;;;;;;5050559;28;20062;-79
2024/01/31 06:21:35;;;;;;;6.00;2.10;;;8.00;99.90;;;;;;5067955;28;20044;-75
2024/01/31 06:24:00;;;;;;;4.80;1.50;;;8.10;99.90;;;;;;5049159;28;20043;-75
2024/01/31 06:26:32;;;;;;;4.45;1.85;;;8.20;99.90;;;;;;5050320;28;20037;-77
2024/01/31 06:28:57;;;;;;;4.53;1.63;;;8.10;99.90;;;;;;5054127;28;20389;-74
2024/01/31 06:31:28;;;;;;;5.22;1.42;;;7.80;99.90;;;;;;5097733;28;20045;-76
2024/01/31 06:33:54;;;;;;;6.78;1.85;;;7.70;99.90;;;;;;5069234;28;20044;-81
2024/01/31 06:36:20;;;;;;;6.90;1.45;;;7.60;99.90;;;;;;5052914;28;20075;-76
2024/01/31 06:38:47;;;;;;;5.43;2.05;;;7.60;99.90;;;;;;5067576;28;20518;-77
2024/01/31 06:41:17;;;;;;;7.55;1.88;;;8.00;99.90;;;;;;5053865;28;20044;-77
2024/01/31 06:43:43;;;;;;;6.07;1.75;;;8.00;99.90;;;;;;5068663;28;20068;-79
2024/01/31 06:46:08;;;;;;;4.55;1.30;;;7.60;99.90;;;;;;5051234;28;20060;-75
2024/01/31 06:48:37;;;;;;;8.77;2.10;;;7.90;99.90;;;;;;5033417;28;20051;-77
2024/01/31 06:51:02;;;;;;;5.95;1.67;;;8.20;99.90;;;;;;5030777;28;20040;-76
2024/01/31 06:53:29;;;;;;;5.82;1.65;;;8.20;99.90;;;;;;5070263;28;20059;-78
2024/01/31 06:55:55;;;;;;;6.88;2.85;;;8.10;99.90;;;;;;5049724;28;20123;-75
2024/01/31 06:58:21;;;;;;;8.18;2.33;;;8.20;99.90;;;;;;5035073;28;20041;-77
2024/01/31 07:00:47;;;;;;;8.48;2.00;;;8.30;99.90;;;;;;5053671;28;20024;-80
2024/01/31 07:03:12;;;;;;;9.52;2.78;;;7.80;99.90;;;;;;5052769;28;20123;-79
2024/01/31 07:05:39;;;;;;;7.63;2.58;;;8.30;99.90;;;;;;5036670;28;20386;-78
2024/01/31 07:08:05;;;;;;;7.55;2.38;;;8.50;99.90;;;;;;5067897;28;20040;-77
2024/01/31 07:10:30;;;;;;;7.35;2.30;;;8.40;99.90;;;;;;5061938;28;21742;-69
2024/01/31 07:12:56;;;;;;;3.78;1.65;;;8.50;99.90;;;;;;5069979;28;20052;-76
2024/01/31 07:15:22;;;;;;;9.02;2.60;;;8.10;99.90;;;;;;5052683;28;20094;-76
2024/01/31 07:17:47;;;;;;;10.95;2.63;;;8.00;99.90;;;;;;5051121;28;20453;-76
2024/01/31 07:20:13;;;;;;;6.63;2.10;;;8.50;99.90;;;;;;5053255;28;20033;-77
2024/01/31 07:22:39;;;;;;;9.02;1.80;;;8.60;99.90;;;;;;5070191;28;20763;-78
2024/01/31 07:25:10;;;;;;;11.18;2.63;;;7.90;99.90;;;;;;5069019;28;20048;-77
2024/01/31 07:27:40;;;;;;;5.72;2.00;;;8.50;99.90;;;;;;5067741;28;20051;-77
2024/01/31 07:30:08;;;;;;;9.73;1.80;;;8.50;99.90;;;;;;5069156;28;20531;-75
2024/01/31 07:32:33;;;;;;;7.85;2.05;;;8.10;99.90;;;;;;5079448;28;20051;-77
2024/01/31 07:34:59;;;;;;;7.63;2.20;;;8.10;99.90;;;;;;5052398;28;20123;-77
2024/01/31 07:37:24;;;;;;;7.03;2.13;;;8.60;99.90;;;;;;5073023;28;20052;-81
2024/01/31 07:39:50;;;;;;;7.30;2.10;;;8.20;99.90;;;;;;5026749;28;20045;-80
2024/01/31 07:42:16;;;;;;;8.40;2.50;;;8.70;99.90;;;;;;5068395;28;20039;-76
2024/01/31 07:44:42;;;;;;;4.25;1.70;;;8.20;99.90;;;;;;5052391;28;20040;-76
2024/01/31 07:47:07;;;;;;;6.18;1.92;;;8.20;99.90;;;;;;5051229;28;20397;-75
2024/01/31 07:49:33;;;;;;;6.32;1.80;;;8.70;99.90;;;;;;5051769;28;20044;-76
2024/01/31 07:51:58;;;;;;;8.38;2.30;;;8.70;99.90;;;;;;5067877;28;20563;-76
2024/01/31 07:54:24;;;;;;;7.63;2.17;;;8.60;99.90;;;;;;5052808;28;20044;-77
2024/01/31 07:56:50;;;;;;;9.02;2.30;;;8.20;99.90;;;;;;5068771;28;20044;-79
2024/01/31 07:59:16;;;;;;;5.57;2.40;;;8.40;99.90;;;;;;5067693;28;20052;-77
2024/01/31 08:01:41;;;;;;;6.43;2.35;;;8.60;99.90;;;;;;5052805;28;20044;-77
2024/01/31 08:04:07;;;;;;;5.97;2.30;;;8.70;99.90;;;;;;5052120;28;20040;-82
2024/01/31 08:06:35;;;;;;;7.85;2.40;;;8.40;99.90;;;;;;5052015;28;20129;-80
2024/01/31 08:09:01;;;;;;;8.65;2.40;;;8.70;99.90;;;;;;5046459;28;20553;-76
2024/01/31 08:11:26;;;;;;;9.57;3.05;;;8.70;99.90;;;;;;5070680;28;20127;-77
2024/01/31 08:13:52;;;;;;;6.22;2.30;;;8.80;99.90;;;;;;5068907;28;20493;-78
2024/01/31 08:16:18;;;;;;;8.02;2.47;;;8.50;99.90;;;;;;5052561;28;20044;-78
2024/01/31 08:18:43;;;;;;;4.65;2.05;;;8.50;99.90;;;;;;5050500;28;20041;-77
2024/01/31 08:21:09;;;;;;;5.75;2.60;;;8.50;99.90;;;;;;5047791;28;20051;-78
2024/01/31 08:23:34;;;;;;;7.55;2.58;;;8.50;99.90;;;;;;5047118;28;20044;-79
2024/01/31 08:26:00;;;;;;;8.02;2.20;;;8.90;99.90;;;;;;5067335;28;20064;-78
2024/01/31 08:28:26;;;;;;;9.90;2.50;;;8.50;99.90;;;;;;5051705;28;20472;-77
2024/01/31 08:30:52;;;;;;;7.35;2.40;;;9.00;99.90;;;;;;5031736;28;20052;-76
2024/01/31 08:33:18;;;;;;;6.80;2.38;;;9.00;99.90;;;;;;5015759;28;20125;-78
2024/01/31 08:35:44;;;;;;;6.40;2.42;;;8.80;99.90;;;;;;5032752;28;20123;-79
2024/01/31 08:38:10;;;;;;;5.78;2.42;;;9.10;99.90;;;;;;5026223;28;21542;-77
2024/01/31 08:40:35;;;;;;;8.70;3.20;;;8.70;99.90;;;;;;5057352;28;20428;-79
2024/01/31 08:43:01;;;;;;;8.05;3.85;;;8.70;99.90;;;;;;5015670;28;20049;-77
2024/01/31 08:45:27;;;;;;;6.30;3.15;;;9.20;99.90;;;;;;5031909;28;20035;-77
2024/01/31 08:47:52;;;;;;;8.48;3.47;;;8.70;99.90;;;;;;5054014;28;20044;-75
2024/01/31 08:50:18;;;;;;;8.50;3.60;;;9.20;99.90;;;;;;5043452;28;20438;-76
2024/01/31 08:52:44;;;;;;;6.18;3.38;;;9.00;99.90;;;;;;5025109;28;20122;-79
2024/01/31 08:55:10;;;;;;;7.03;3.10;;;9.20;99.90;;;;;;5064678;28;20131;-76
2024/01/31 08:57:35;;;;;;;6.22;2.92;;;9.20;99.90;;;;;;5048452;28;20514;-76
2024/01/31 09:00:04;;;;;;;6.07;3.05;;;9.20;99.90;;;;;;5080036;28;20731;-76
2024/01/31 09:02:30;;;;;;;7.90;3.80;;;9.10;99.90;;;;;;5058429;28;20044;-77
2024/01/31 09:04:55;;;;;;;8.60;3.67;;;8.90;99.90;;;;;;5048359;28;20037;-77
2024/01/31 09:07:21;;;;;;;7.38;5.15;;;8.90;99.90;;;;;;5045074;28;20134;-78
2024/01/31 09:09:46;;;;;;;6.70;4.22;;;9.00;99.90;;;;;;5057806;28;20075;-76
2024/01/31 09:12:12;;;;;;;6.10;3.60;;;9.40;99.90;;;;;;5049720;28;20118;-76
2024/01/31 09:14:38;;;;;;;6.20;3.25;;;9.50;99.90;;;;;;5022548;28;20393;-78
2024/01/31 09:17:05;;;;;;;5.28;3.47;;;9.20;99.90;;;;;;5022718;28;20151;-76
2024/01/31 09:19:30;;;;;;;5.78;3.90;;;9.20;99.90;;;;;;5065304;28;20044;-77
2024/01/31 09:21:56;;;;;;;6.18;3.72;;;9.50;99.90;;;;;;5035192;28;20086;-76
2024/01/31 09:24:22;;;;;;;6.97;4.15;;;9.30;99.90;;;;;;5051417;28;20051;-76
2024/01/31 09:26:47;;;;;;;6.40;4.07;;;9.30;99.90;;;;;;5051602;28;20042;-75
2024/01/31 09:29:13;;;;;;;5.63;3.78;;;9.40;99.90;;;;;;5050968;28;20575;-77
2024/01/31 09:31:39;;;;;;;5.63;3.90;;;9.60;99.90;;;;;;5034599;28;20072;-77
2024/01/31 09:34:04;;;;;;;6.15;4.25;;;9.60;99.90;;;;;;5015269;28;20037;-76
2024/01/31 09:36:30;;;;;;;6.32;4.55;;;9.70;99.90;;;;;;5031183;28;20438;-78
2024/01/31 09:38:56;;;;;;;5.45;4.40;;;9.70;99.90;;;;;;5079997;28;20029;-76
2024/01/31 09:41:21;;;;;;;9.60;4.82;;;9.60;99.90;;;;;;5041419;28;20080;-79
2024/01/31 09:43:47;;;;;;;6.97;4.10;;;9.60;99.90;;;;;;5048255;28;20095;-76
2024/01/31 09:46:15;;;;;;;6.15;4.72;;;9.50;99.90;;;;;;5015030;28;20044;-78
2024/01/31 09:48:41;;;;;;;6.03;5.20;;;9.80;99.90;;;;;;5058880;28;20044;-80
2024/01/31 09:51:19;;;;;;;8.95;5.85;;;9.70;99.90;;;;;;5050757;28;20143;-79
2024/01/31 09:53:51;;;;;;;7.35;6.43;;;9.60;99.90;;;;;;5068264;28;20095;-80
2024/01/31 09:56:18;;;;;;;7.65;6.93;;;9.70;99.90;;;;;;5051359;28;20047;-80
2024/01/31 09:58:44;;;;;;;7.68;6.97;;;9.80;99.90;;;;;;5031613;28;20052;-81
2024/01/31 10:01:11;;;;;;;8.02;7.22;;;9.60;99.90;;;;;;5054267;28;20492;-81
2024/01/31 10:03:37;;;;;;;9.90;6.63;;;9.60;99.90;;;;;;5072551;28;20037;-76
2024/01/31 10:06:03;;;;;;;11.30;8.23;;;10.00;99.90;;;;;;5071941;28;20568;-78
2024/01/31 10:08:29;;;;;;;8.15;7.43;;;10.00;99.90;;;;;;5054456;28;20572;-79
2024/01/31 10:10:55;;;;;;;9.35;8.38;;;10.10;99.90;;;;;;5070728;28;20131;-80
2024/01/31 10:13:21;;;;;;;10.02;8.40;;;9.70;99.90;;;;;;5043192;28;20041;-76
2024/01/31 10:15:47;;;;;;;9.60;8.70;;;10.00;99.90;;;;;;5051924;28;20035;-77
2024/01/31 10:18:15;;;;;;;9.00;8.07;;;9.90;99.90;;;;;;5042923;28;20557;-77
2024/01/31 10:20:40;;;;;;;9.95;9.05;;;10.10;99.90;;;;;;5051353;28;20075;-77
2024/01/31 10:23:06;;;;;;;10.00;9.00;;;10.10;99.90;;;;;;5062803;28;20091;-77
2024/01/31 10:25:31;;;;;;;9.20;8.32;;;10.00;99.90;;;;;;5029346;28;20048;-80
2024/01/31 10:27:57;;;;;;;10.15;8.98;;;10.00;99.90;;;;;;5074680;28;20040;-77
2024/01/31 10:30:23;;;;;;;10.70;8.88;;;9.90;99.90;;;;;;5070228;28;20428;-76
2024/01/31 10:32:50;;;;;;;10.52;9.48;;;10.00;99.90;;;;;;5020057;28;20044;-77
2024/01/31 10:35:15;;;;;;;9.40;8.50;;;9.90;99.90;;;;;;5070341;28;20047;-78
2024/01/31 10:37:41;;;;;;;9.32;8.43;;;10.00;99.90;;;;;;5066643;28;20037;-76
2024/01/31 10:40:12;;;;;;;9.90;8.90;;;10.00;99.90;;;;;;5054440;28;20090;-77
2024/01/31 10:42:38;;;;;;;9.40;8.50;;;10.00;99.90;;;;;;5070943;28;20029;-78
2024/01/31 10:45:05;;;;;;;9.77;8.77;;;10.10;99.90;;;;;;5069946;28;20406;-77
2024/01/31 10:47:32;;;;;;;10.07;9.07;;;10.00;99.90;;;;;;5068583;28;20048;-79
2024/01/31 10:49:58;;;;;;;8.73;7.90;;;10.30;99.90;;;;;;5051103;28;20063;-78
2024/01/31 10:52:30;;;;;;;9.52;8.57;;;10.00;99.90;;;;;;5070008;28;20060;-79
2024/01/31 10:55:00;;;;;;;9.68;8.60;;;10.40;99.90;;;;;;5060747;28;20045;-78
2024/01/31 10:57:28;;;;;;;9.05;7.75;;;10.20;99.90;;;;;;5052461;28;20037;-79
2024/01/31 10:59:56;;;;;;;11.60;8.88;;;10.40;99.90;;;;;;5070279;28;20771;-77
2024/01/31 11:02:31;;;;;;;9.07;8.18;;;10.40;99.90;;;;;;5069034;28;20041;-79
2024/01/31 11:04:58;;;;;;;;;;;10.20;99.90;;;;;;5047568;28;20032;-78
2024/01/31 11:07:24;;;;;;;11.30;8.07;;;10.30;99.90;;;;;;5053657;28;19920;-78
2024/01/31 11:09:51;;;;;;;7.90;7.20;;;10.60;99.90;;;;;;5068507;28;20134;-77
2024/01/31 11:12:17;;;;;;;8.20;7.47;;;10.60;99.90;;;;;;5052379;28;20040;-78
2024/01/31 11:14:44;;;;;;;8.23;7.43;;;10.50;99.90;;;;;;5036503;28;20048;-78
2024/01/31 11:17:23;;;;;;;8.43;7.53;;;10.30;99.90;;;;;;5053482;28;20037;-77
2024/01/31 11:19:51;;;;;;;8.27;7.50;;;10.30;99.90;;;;;;5053331;28;20040;-79
2024/01/31 11:22:21;;;;;;;8.43;7.10;;;10.60;99.90;;;;;;5065850;28;20028;-77
2024/01/31 11:24:48;;;;;;;8.98;8.07;;;10.30;99.90;;;;;;5068167;28;20045;-78
2024/01/31 11:27:16;;;;;;;8.57;7.70;;;10.40;99.90;;;;;;5052265;28;20077;-78
2024/01/31 11:29:45;;;;;;;7.63;6.93;;;10.60;99.90;;;;;;5066180;28;20083;-79
2024/01/31 11:32:14;;;;;;;8.27;7.18;;;10.50;99.90;;;;;;5060493;28;20417;-79
2024/01/31 11:34:41;;;;;;;7.43;6.72;;;10.40;99.90;;;;;;5053573;28;20513;-78
2024/01/31 11:37:07;;;;;;;7.03;6.43;;;10.60;99.90;;;;;;5069857;28;20801;-79
2024/01/31 11:39:33;;;;;;;6.88;6.20;;;10.50;99.90;;;;;;5069614;28;20036;-78
2024/01/31 11:41:59;;;;;;;6.93;6.32;;;10.60;99.90;;;;;;5069801;28;20029;-78
2024/01/31 11:44:25;;;;;;;8.70;6.75;;;10.70;99.90;;;;;;5066243;28;20047;-77
2024/01/31 11:46:52;;;;;;;6.63;6.00;;;10.50;99.90;;;;;;5069025;28;20032;-78
2024/01/31 11:49:18;;;;;;;7.13;6.43;;;10.50;99.90;;;;;;5068465;28;20036;-79
2024/01/31 11:51:43;;;;;;;6.55;5.97;;;10.50;99.90;;;;;;5052611;28;20033;-77
2024/01/31 11:54:10;;;;;;;7.57;5.82;;;10.40;99.90;;;;;;5047951;28;20728;-77
2024/01/31 11:56:36;;;;;;;8.80;7.68;;;10.50;99.90;;;;;;5049525;28;20429;-79
2024/01/31 11:59:03;;;;;;;7.40;6.70;;;10.50;99.90;;;;;;5063949;28;20036;-79
2024/01/31 12:01:30;;;;;;;7.25;6.13;;;10.50;99.90;;;;;;5038936;28;20102;-78
2024/01/31 12:03:56;;;;;;;7.65;6.63;;;10.50;99.90;;;;;;5061346;28;20043;-78
2024/01/31 12:06:22;;;;;;;13.45;11.10;;;10.50;99.90;;;;;;5052555;28;20473;-78
2024/01/31 12:08:49;;;;;;;7.57;6.68;;;10.50;99.90;;;;;;5035501;28;20043;-77
2024/01/31 12:11:18;;;;;;;6.88;6.18;;;10.40;99.90;;;;;;5052827;28;20044;-79
2024/01/31 12:13:47;;;;;;;6.93;6.22;;;10.40;99.90;;;;;;5036635;28;20040;-79
2024/01/31 12:16:13;;;;;;;7.20;6.47;;;10.50;99.90;;;;;;5068903;28;20404;-78
2024/01/31 12:18:39;;;;;;;10.43;7.63;;;10.30;99.90;;;;;;5067926;28;20052;-80
2024/01/31 12:21:06;;;;;;;7.40;6.57;;;10.60;99.90;;;;;;5052680;28;20123;-77
2024/01/31 12:23:32;;;;;;;6.43;5.80;;;10.60;99.90;;;;;;5052104;28;20076;-77
2024/01/31 12:25:59;;;;;;;8.30;6.32;;;10.40;99.90;;;;;;5031472;28;20033;-77
2024/01/31 12:28:25;;;;;;;7.13;6.43;;;10.40;99.90;;;;;;5087023;27;20060;-77
2024/01/31 12:30:51;;;;;;;6.40;5.70;;;10.50;99.90;;;;;;5048518;28;20791;-79
2024/01/31 12:33:18;;;;;;;6.78;6.07;;;10.40;99.90;;;;;;5048590;28;20131;-78
2024/01/31 12:35:44;;;;;;;7.03;6.25;;;10.40;99.90;;;;;;5065845;28;20048;-79
2024/01/31 12:38:10;;;;;;;6.70;5.85;;;10.40;99.90;;;;;;5056222;28;20048;-79
2024/01/31 12:40:37;;;;;;;7.50;6.43;;;10.50;99.90;;;;;;5068383;28;20072;-79
2024/01/31 12:43:03;;;;;;;7.05;6.35;;;10.30;99.90;;;;;;5052121;28;20075;-78
2024/01/31 12:45:28;;;;;;;6.78;6.18;;;10.50;99.90;;;;;;5065159;28;20067;-77
2024/01/31 12:47:54;;;;;;;6.18;5.57;;;10.40;99.90;;;;;;5050647;28;20066;-79
2024/01/31 12:50:20;;;;;;;6.65;6.05;;;10.40;99.90;;;;;;5039802;28;20044;-77